Time;durP1;ratioP1;P1;durP2;ratioP2;P2;SDS_P1;SDS_P2;PMS_P1;PMS_P2;Temp;Humidity;BMP_temperature;BMP_pressure;BME280_temperature;BME280_humidity;BME280_pressure;Samples;Min_cycle;Max_cycle;Signal;HPM_P1;HPM_P2
2022/11/22 00:00:53;;;;;;;20.58;11.05;;;;;;;;;;4982900;28;20604;-80
2022/11/22 00:03:19;;;;;;;16.90;10.45;;;;;;;4.16;100.00;67233.38;5004815;28;20066;-81
2022/11/22 00:05:44;;;;;;;19.05;11.25;;;;;;;4.15;100.00;67237.53;4992165;28;20077;-81
2022/11/22 00:08:09;;;;;;;17.08;10.45;;;;;;;4.14;100.00;67235.84;5010777;28;20588;-80
2022/11/22 00:10:35;;;;;;;16.42;12.20;;;;;;;4.14;100.00;67236.41;5013108;28;20046;-80
2022/11/22 00:13:00;;;;;;;18.27;10.73;;;;;;;4.15;100.00;67236.97;5004172;28;20061;-80
2022/11/22 00:15:26;;;;;;;19.77;11.48;;;;;;;4.15;100.00;67231.72;5001593;28;20517;-80
2022/11/22 00:17:51;;;;;;;17.88;11.18;;;;;;;;;;4990383;28;20493;-79
2022/11/22 00:20:16;;;;;;;17.75;11.90;;;;;;;;;;4990901;28;20038;-81
2022/11/22 00:22:42;;;;;;;16.10;10.55;;;;;;;4.17;100.00;67239.81;4991154;28;20039;-82
2022/11/22 00:25:07;;;;;;;18.10;11.68;;;;;;;;;;4990445;28;20049;-81
2022/11/22 00:27:32;;;;;;;16.75;10.95;;;;;;;;;;4993589;28;20137;-82
2022/11/22 00:29:58;;;;;;;20.98;11.98;;;;;;;4.19;100.00;67241.47;4992114;28;20129;-81
2022/11/22 00:32:23;;;;;;;18.00;10.93;;;;;;;;;;5010870;28;20049;-80
2022/11/22 00:34:48;;;;;;;23.10;11.43;;;;;;;;;;4992840;28;20053;-81
2022/11/22 00:37:14;;;;;;;18.42;11.40;;;;;;;4.21;100.00;67244.31;4997505;28;20042;-82
2022/11/22 00:39:39;;;;;;;18.52;11.02;;;;;;;4.23;100.00;67246.56;4999896;28;20061;-81
2022/11/22 00:42:04;;;;;;;21.15;10.43;;;;;;;4.23;100.00;67246.00;5000080;28;20477;-82
2022/11/22 00:44:30;;;;;;;21.60;11.30;;;;;;;;;;5001049;28;20040;-82
2022/11/22 00:46:55;;;;;;;17.05;11.13;;;;;;;4.25;100.00;67240.91;4995818;28;20564;-82
2022/11/22 00:49:20;;;;;;;18.58;11.18;;;;;;;4.26;100.00;67249.94;4998829;28;20670;-81
2022/11/22 00:51:46;;;;;;;18.20;10.20;;;;;;;4.26;100.00;67249.94;4996736;28;20035;-84
2022/11/22 00:54:11;;;;;;;20.83;10.95;;;;;;;4.29;100.00;67252.78;4997608;28;20133;-83
2022/11/22 00:56:37;;;;;;;16.30;9.65;;;;;;;4.31;100.00;67255.03;4997113;28;20039;-82
2022/11/22 00:59:02;;;;;;;16.20;8.85;;;;;;;;;;4999765;28;20076;-81
2022/11/22 01:01:27;;;;;;;16.95;10.00;;;;;;;4.35;100.00;67262.19;4998519;28;20101;-81
2022/11/22 01:03:52;;;;;;;14.20;10.73;;;;;;;4.37;100.00;67255.97;4998293;28;20055;-82
2022/11/22 01:06:18;;;;;;;17.80;11.63;;;;;;;4.36;100.00;67260.66;4999093;28;20070;-82
2022/11/22 01:08:43;;;;;;;20.25;9.52;;;;;;;;;;5007289;28;20081;-82
2022/11/22 01:11:10;;;;;;;15.05;8.65;;;;;;;4.41;100.00;67266.31;5002939;28;20038;-82
2022/11/22 01:13:35;;;;;;;17.65;11.10;;;;;;;4.43;100.00;67262.72;5007424;28;20043;-81
2022/11/22 01:16:04;;;;;;;15.63;10.10;;;;;;;4.45;100.00;67270.25;5009242;28;20130;-81
2022/11/22 01:18:29;;;;;;;13.07;9.68;;;;;;;;;;4995441;28;20153;-81
2022/11/22 01:20:54;;;;;;;18.40;10.13;;;;;;;;;;4995070;28;20129;-81
2022/11/22 01:23:20;;;;;;;14.80;8.70;;;;;;;4.49;100.00;67277.97;5000325;28;20057;-81
2022/11/22 01:25:45;;;;;;;14.18;8.48;;;;;;;4.48;100.00;67274.22;4996334;28;20050;-83
2022/11/22 01:28:10;;;;;;;16.65;9.50;;;;;;;;;;5008709;28;20615;-81
2022/11/22 01:30:36;;;;;;;16.38;9.23;;;;;;;4.52;100.00;67278.19;4994279;28;20054;-81
2022/11/22 01:33:01;;;;;;;18.38;9.85;;;;;;;;;;4995058;28;20042;-83
2022/11/22 01:35:26;;;;;;;18.45;10.55;;;;;;;;;;4991399;28;20079;-81
2022/11/22 01:37:52;;;;;;;16.60;10.13;;;;;;;4.53;100.00;67274.03;4990434;28;20051;-82
2022/11/22 01:40:17;;;;;;;18.42;9.38;;;;;;;;;;4990199;28;20098;-81
2022/11/22 01:42:44;;;;;;;15.48;8.32;;;;;;;;;;4990703;28;20108;-82
2022/11/22 01:45:25;;;;;;;16.02;9.20;;;;;;;;;;4990066;28;20046;-81
2022/11/22 01:47:50;;;;;;;11.50;7.55;;;;;;;;;;4990354;28;20124;-80
2022/11/22 01:50:16;;;;;;;17.50;9.50;;;;;;;4.57;100.00;67283.81;4991579;28;20463;-81
2022/11/22 01:52:42;;;;;;;18.52;9.23;;;;;;;;;;4989731;28;20038;-81
2022/11/22 01:55:08;;;;;;;19.92;9.20;;;;;;;;;;4989647;28;20047;-81
2022/11/22 01:57:35;;;;;;;15.90;9.55;;;;;;;;;;4989980;28;20042;-81
2022/11/22 02:00:04;;;;;;;15.20;8.18;;;;;;;;;;4989306;28;20050;-81
2022/11/22 02:02:29;;;;;;;17.30;9.82;;;;;;;4.62;100.00;67284.19;4991056;28;20046;-81
2022/11/22 02:04:58;;;;;;;17.55;9.60;;;;;;;4.62;100.00;67283.63;4988292;28;20046;-81
2022/11/22 02:07:26;;;;;;;17.83;9.37;;;;;;;;;;4989745;28;20045;-81
2022/11/22 02:09:52;;;;;;;17.67;8.65;;;;;;;4.64;100.00;67291.16;4973115;28;20777;-81
2022/11/22 02:12:22;;;;;;;16.48;9.40;;;;;;;4.63;100.00;67285.31;4992092;28;20050;-81
2022/11/22 02:14:48;;;;;;;19.52;10.98;;;;;;;4.64;100.00;67286.44;4989624;28;20057;-81
2022/11/22 02:17:13;;;;;;;17.45;10.88;;;;;;;4.65;100.00;67294.91;4987976;28;20125;-81
2022/11/22 02:19:45;;;;;;;14.93;9.38;;;;;;;4.64;100.00;67291.16;4990326;28;20073;-81
2022/11/22 02:22:36;;;;;;;17.98;9.80;;;;;;;4.64;100.00;67291.72;4988965;28;20070;-81
2022/11/22 02:25:21;;;;;;;20.65;10.65;;;;;;;4.66;100.00;67288.13;4983898;28;20050;-83
2022/11/22 02:27:50;;;;;;;15.40;8.70;;;;;;;4.62;100.00;67289.44;4991310;28;20045;-81
2022/11/22 02:30:16;;;;;;;19.73;9.27;;;;;;;;;;4994487;28;20034;-83
2022/11/22 02:32:42;;;;;;;21.40;9.70;;;;;;;4.64;100.00;67286.44;4992134;28;20525;-81
2022/11/22 02:35:33;;;;;;;19.33;11.75;;;;;;;;;;4992390;28;20141;-81
2022/11/22 02:38:08;;;;;;;17.45;9.98;;;;;;;;;;5005505;28;20041;-80
2022/11/22 02:40:39;;;;;;;17.08;10.75;;;;;;;4.63;100.00;67285.31;5019692;28;20042;-81
2022/11/22 02:43:09;;;;;;;20.25;10.40;;;;;;;4.65;100.00;67297.56;5004420;28;20057;-80
2022/11/22 02:45:34;;;;;;;20.65;10.20;;;;;;;4.65;100.00;67292.84;4993888;28;20697;-83
2022/11/22 02:48:05;;;;;;;19.50;11.27;;;;;;;;;;4994038;28;20044;-80
2022/11/22 02:50:30;;;;;;;20.85;10.35;;;;;;;;;;4996970;28;20042;-84
2022/11/22 02:52:56;;;;;;;21.88;12.52;;;;;;;4.69;100.00;67289.47;4998933;28;20744;-81
2022/11/22 02:55:21;;;;;;;18.20;11.45;;;;;;;4.73;100.00;67293.41;5013043;28;20038;-81
2022/11/22 02:57:46;;;;;;;19.63;11.93;;;;;;;4.74;100.00;67303.00;5013299;28;20054;-84
2022/11/22 03:00:12;;;;;;;20.90;11.20;;;;;;;4.78;100.00;67306.41;4993958;28;20077;-83
2022/11/22 03:02:37;;;;;;;18.30;10.48;;;;;;;;;;4997341;28;20041;-81
2022/11/22 03:05:03;;;;;;;19.38;11.40;;;;;;;;;;4992978;28;20039;-84
2022/11/22 03:07:28;;;;;;;19.38;11.32;;;;;;;4.84;100.00;67315.81;4994627;28;20143;-81
2022/11/22 03:09:53;;;;;;;23.25;13.18;;;;;;;4.86;100.00;67310.72;5003660;28;20222;-82
2022/11/22 03:12:19;;;;;;;28.77;14.82;;;;;;;4.90;100.00;67323.16;4994552;28;20057;-82
2022/11/22 03:14:44;;;;;;;17.83;11.45;;;;;;;;;;5001081;28;20034;-81
2022/11/22 03:17:09;;;;;;;18.83;11.13;;;;;;;;;;5007727;28;20129;-83
2022/11/22 03:19:34;;;;;;;22.88;11.70;;;;;;;4.99;100.00;67324.84;4996725;28;20454;-81
2022/11/22 03:22:00;;;;;;;21.02;11.98;;;;;;;;;;4993257;28;20696;-82
2022/11/22 03:24:25;;;;;;;18.70;10.30;;;;;;;;;;4994879;28;20042;-81
2022/11/22 03:26:50;;;;;;;22.10;13.75;;;;;;;5.06;100.00;67338.00;4993771;28;20054;-81
2022/11/22 03:29:17;;;;;;;19.67;10.77;;;;;;;5.09;100.00;67340.84;4995908;28;20042;-82
2022/11/22 03:31:42;;;;;;;25.05;13.18;;;;;;;5.10;100.00;67341.97;4987747;28;20126;-81
2022/11/22 03:34:10;;;;;;;19.83;11.60;;;;;;;5.13;100.00;67337.44;4994165;28;20066;-81
2022/11/22 03:36:36;;;;;;;19.58;12.65;;;;;;;5.15;100.00;67340.28;4993176;28;20057;-80
2022/11/22 03:39:01;;;;;;;17.52;10.43;;;;;;;5.17;100.00;67344.59;4994670;28;20125;-81
2022/11/22 03:41:27;;;;;;;21.45;13.82;;;;;;;5.18;100.00;67346.31;4994591;28;20065;-81
2022/11/22 03:43:52;;;;;;;19.50;11.07;;;;;;;;;;4991586;28;20045;-80
2022/11/22 03:46:20;;;;;;;20.05;11.77;;;;;;;;;;4993451;28;22601;-82
2022/11/22 03:48:46;;;;;;;25.48;12.98;;;;;;;;;;4991443;28;20046;-82
2022/11/22 03:51:11;;;;;;;19.15;11.02;;;;;;;;;;4984557;28;20118;-82
2022/11/22 03:53:37;;;;;;;25.50;12.35;;;;;;;5.31;100.00;67365.69;5000174;28;20092;-80
2022/11/22 03:56:03;;;;;;;19.13;10.60;;;;;;;5.32;100.00;67360.97;4996387;28;20051;-80
2022/11/22 03:58:29;;;;;;;22.80;11.70;;;;;;;5.33;100.00;67370.03;4994823;28;20596;-80
2022/11/22 04:00:55;;;;;;;21.00;12.27;;;;;;;;;;4995676;28;20042;-83
2022/11/22 04:03:20;;;;;;;25.70;12.75;;;;;;;5.37;100.00;67363.97;4994756;28;20042;-82
2022/11/22 04:05:45;;;;;;;20.65;14.02;;;;;;;;;;4992574;28;20092;-81
2022/11/22 04:08:12;;;;;;;26.50;13.95;;;;;;;5.35;100.00;67362.31;5013607;28;20046;-81
2022/11/22 04:10:37;;;;;;;22.65;10.90;;;;;;;5.36;100.00;67373.41;5014693;28;20656;-81
2022/11/22 04:13:03;;;;;;;24.95;12.07;;;;;;;5.33;100.00;67362.69;4998997;28;20077;-81
2022/11/22 04:15:28;;;;;;;23.80;11.23;;;;;;;5.33;100.00;67362.13;5007114;28;20046;-81
2022/11/22 04:17:53;;;;;;;23.67;12.43;;;;;;;5.30;100.00;67364.00;4995635;28;20506;-80
2022/11/22 04:23:08;;;;;;;20.53;12.23;;;;;;;5.31;100.00;67354.56;5001114;28;20166;-83
2022/11/22 04:25:36;;;;;;;22.85;11.98;;;;;;;5.30;100.00;67367.22;4995026;28;20832;-80
2022/11/22 04:28:03;;;;;;;24.52;12.23;;;;;;;5.29;100.00;67362.88;4994344;28;20049;-80
2022/11/22 04:33:13;;;;;;;20.83;11.05;;;;;;;;;;4985683;28;20053;-83
2022/11/22 04:35:40;;;;;;;26.25;12.13;;;;;;;5.40;100.00;67375.28;4996057;28;20042;-82
2022/11/22 04:38:05;;;;;;;14.60;7.30;;;;;;;5.41;100.00;67371.72;4997465;28;20042;-80
2022/11/22 04:40:31;;;;;;;22.23;9.45;;;;;;;5.45;100.00;67375.09;4991591;28;20073;-81
2022/11/22 04:45:41;;;;;;;20.95;9.60;;;;;;;;;;4994851;28;20077;-80
2022/11/22 04:48:06;;;;;;;20.75;9.50;;;;;;;;;;4993648;28;20089;-81
2022/11/22 04:53:17;;;;;;;21.40;9.07;;;;;;;5.43;100.00;67378.69;5008957;28;20077;-81
2022/11/22 04:55:45;;;;;;;19.85;9.02;;;;;;;5.40;100.00;67370.56;4997933;28;20038;-82
2022/11/22 04:58:11;;;;;;;19.33;9.02;;;;;;;5.39;100.00;67368.88;4978687;28;20043;-83
2022/11/22 05:00:36;;;;;;;18.38;8.20;;;;;;;5.35;100.00;67372.84;4997422;28;20890;-82
2022/11/22 05:03:02;;;;;;;15.18;7.47;;;;;;;;;;4999171;28;20797;-80
2022/11/22 05:05:28;;;;;;;17.40;7.55;;;;;;;5.31;100.00;67365.69;4997426;28;20050;-82
2022/11/22 05:07:53;;;;;;;18.92;7.78;;;;;;;;;;4997931;28;20049;-82
2022/11/22 05:10:19;;;;;;;16.02;7.18;;;;;;;5.29;100.00;67366.06;5011432;28;20489;-82
2022/11/22 05:12:44;;;;;;;17.70;7.55;;;;;;;5.28;100.00;67357.03;5018903;28;20038;-81
2022/11/22 05:15:10;;;;;;;13.80;6.57;;;;;;;;;;5001427;28;20089;-82
2022/11/22 05:17:37;;;;;;;16.88;7.13;;;;;;;5.20;100.00;67353.25;4993039;28;20666;-81
2022/11/22 05:20:05;;;;;;;16.55;6.05;;;;;;;5.16;100.00;67351.94;4995500;28;20044;-82
2022/11/22 05:25:21;;;;;;;20.15;7.43;;;;;;;5.12;100.00;67344.22;4979650;28;20288;-80
2022/11/22 05:27:47;;;;;;;18.37;6.70;;;;;;;5.07;100.00;67339.16;4982004;28;20089;-80
2022/11/22 05:30:12;;;;;;;15.73;7.53;;;;;;;5.07;100.00;67333.88;4994040;28;20270;-82
2022/11/22 05:32:37;;;;;;;16.65;7.25;;;;;;;;;;4982698;28;20038;-81
2022/11/22 05:35:03;;;;;;;19.13;8.23;;;;;;;;;;4983040;28;20050;-82
2022/11/22 05:37:28;;;;;;;14.25;5.55;;;;;;;;;;4986531;28;20047;-79
2022/11/22 05:39:54;;;;;;;18.80;6.65;;;;;;;4.92;100.00;67322.19;4977429;28;20126;-80
2022/11/22 05:42:19;;;;;;;13.93;7.10;;;;;;;4.91;100.00;67321.06;4994736;28;20046;-79
2022/11/22 05:44:45;;;;;;;18.15;7.95;;;;;;;4.86;100.00;67315.41;4995694;28;20445;-81
2022/11/22 05:47:10;;;;;;;18.60;6.10;;;;;;;4.83;100.00;67312.03;4991862;28;20046;-82
2022/11/22 05:49:35;;;;;;;17.67;7.45;;;;;;;;;;4992155;28;20056;-80
2022/11/22 05:52:02;;;;;;;18.92;8.20;;;;;;;4.77;100.00;67305.25;4991782;28;20069;-81
2022/11/22 05:54:28;;;;;;;17.25;7.53;;;;;;;4.77;100.00;67307.91;4993425;28;20042;-82
2022/11/22 05:56:53;;;;;;;17.83;5.85;;;;;;;;;;5004396;28;20106;-81
2022/11/22 05:59:19;;;;;;;21.23;7.03;;;;;;;;;;4994569;28;20074;-83
2022/11/22 06:01:44;;;;;;;18.15;6.45;;;;;;;4.67;100.00;67294.53;4993077;28;20057;-80
2022/11/22 06:04:10;;;;;;;18.33;6.50;;;;;;;4.66;100.00;67293.97;4994766;28;20042;-80
2022/11/22 06:06:35;;;;;;;20.75;6.80;;;;;;;;;;4992289;28;20505;-79
2022/11/22 06:09:01;;;;;;;16.55;6.45;;;;;;;4.63;100.00;67285.31;5006723;28;20397;-85
2022/11/22 06:11:26;;;;;;;20.45;7.70;;;;;;;;;;4988240;28;20082;-79
2022/11/22 06:13:54;;;;;;;19.42;6.15;;;;;;;4.59;100.00;67286.06;4991583;28;20070;-80
2022/11/22 06:16:23;;;;;;;18.02;6.68;;;;;;;4.61;100.00;67288.34;4992423;28;20038;-81
2022/11/22 06:18:49;;;;;;;18.23;6.20;;;;;;;4.58;100.00;67279.13;5007650;28;20038;-80
2022/11/22 06:21:19;;;;;;;15.13;5.75;;;;;;;4.53;100.00;67271.94;4992918;28;20041;-83
2022/11/22 06:23:45;;;;;;;13.20;5.40;;;;;;;4.53;100.00;67279.28;4992364;28;20053;-80
2022/11/22 06:26:11;;;;;;;24.20;7.43;;;;;;;;;;4991691;28;21094;-81
2022/11/22 06:28:37;;;;;;;19.02;6.35;;;;;;;;;;4991504;28;20038;-80
2022/11/22 06:31:12;;;;;;;16.13;6.40;;;;;;;;;;4993090;28;20073;-82
2022/11/22 06:33:38;;;;;;;15.32;6.07;;;;;;;;;;4988091;28;20053;-83
2022/11/22 06:36:18;;;;;;;15.05;6.32;;;;;;;4.48;100.00;67273.66;4989478;28;20662;-84
2022/11/22 06:38:44;;;;;;;15.25;6.10;;;;;;;4.48;100.00;67268.38;4998697;28;20638;-80
2022/11/22 06:41:12;;;;;;;14.35;5.30;;;;;;;4.40;100.00;67265.19;4986305;28;20527;-80
2022/11/22 06:43:39;;;;;;;14.65;4.78;;;;;;;4.37;100.00;67261.22;4995797;28;20062;-82
2022/11/22 06:46:05;;;;;;;16.77;4.85;;;;;;;;;;4994938;28;20042;-85
2022/11/22 06:48:33;;;;;;;17.63;4.20;;;;;;;4.30;100.00;67253.91;4995533;28;20072;-81
2022/11/22 06:51:02;;;;;;;15.27;4.45;;;;;;;;;;4991079;28;20165;-84
2022/11/22 06:53:28;;;;;;;14.90;5.15;;;;;;;4.27;100.00;67245.25;4991407;28;20584;-81
2022/11/22 06:56:01;;;;;;;18.23;4.57;;;;;;;4.23;100.00;67246.56;4988922;28;20529;-80
2022/11/22 06:58:26;;;;;;;14.48;4.88;;;;;;;4.22;100.00;67240.16;4992697;28;20058;-82
2022/11/22 07:00:52;;;;;;;15.23;5.15;;;;;;;4.21;100.00;67244.31;4999305;28;20042;-80
2022/11/22 07:03:18;;;;;;;12.77;4.07;;;;;;;4.22;100.00;67244.88;4994363;28;20074;-84
2022/11/22 07:05:50;;;;;;;15.95;5.30;;;;;;;;;;4993415;28;20109;-82
2022/11/22 07:08:15;;;;;;;16.23;5.00;;;;;;;4.20;100.00;67242.59;5003076;28;20042;-84
2022/11/22 07:10:41;;;;;;;22.75;5.68;;;;;;;;;;4999249;28;20417;-83
2022/11/22 07:13:06;;;;;;;16.08;4.70;;;;;;;4.19;100.00;67244.69;4998146;28;20050;-81
2022/11/22 07:15:31;;;;;;;14.70;4.75;;;;;;;4.19;100.00;67242.03;4997270;28;20038;-84
2022/11/22 07:17:57;;;;;;;15.52;4.80;;;;;;;;;;4999034;28;20054;-82
2022/11/22 07:20:22;;;;;;;11.75;4.65;;;;;;;;;;5001150;28;20097;-82
2022/11/22 07:22:47;;;;;;;11.85;3.80;;;;;;;;;;5000372;28;20046;-85
2022/11/22 07:25:13;;;;;;;16.80;4.95;;;;;;;4.15;100.00;67237.53;5000348;28;20054;-81
2022/11/22 07:27:38;;;;;;;13.98;4.30;;;;;;;4.15;100.00;67237.53;5002494;28;20113;-85
2022/11/22 07:30:04;;;;;;;17.20;5.18;;;;;;;4.13;100.00;67235.28;5017427;28;20344;-83
2022/11/22 07:32:29;;;;;;;21.85;4.55;;;;;;;;;;5008691;28;20065;-87
2022/11/22 07:34:54;;;;;;;16.20;4.20;;;;;;;;;;5006935;28;20042;-86
2022/11/22 07:37:19;;;;;;;12.27;4.28;;;;;;;4.07;100.00;67229.06;5007012;28;20081;-86
2022/11/22 07:39:45;;;;;;;12.73;4.10;;;;;;;4.09;100.00;67230.78;5008550;28;20042;-86
2022/11/22 07:42:11;;;;;;;14.38;3.55;;;;;;;4.11;100.00;67227.19;5005628;28;20494;-85
2022/11/22 07:44:37;;;;;;;17.10;3.72;;;;;;;;;;5004020;28;20078;-85
2022/11/22 07:47:02;;;;;;;19.73;3.88;;;;;;;4.10;100.00;67234.53;5010534;28;20042;-86
2022/11/22 07:49:27;;;;;;;15.63;3.63;;;;;;;4.09;100.00;67230.78;5009958;28;20057;-82
2022/11/22 07:51:53;;;;;;;14.40;3.75;;;;;;;4.09;100.00;67224.94;5010269;28;20054;-84
2022/11/22 07:54:18;;;;;;;21.20;5.05;;;;;;;;;;5004042;28;20081;-85
2022/11/22 07:56:43;;;;;;;19.08;4.93;;;;;;;4.07;100.00;67231.69;5003260;28;20042;-84
2022/11/22 07:59:09;;;;;;;12.02;4.30;;;;;;;4.10;100.00;67234.53;4996954;28;20114;-83
2022/11/22 08:01:34;;;;;;;16.63;3.80;;;;;;;4.13;100.00;67230.00;4998579;28;20046;-81
2022/11/22 08:03:59;;;;;;;15.60;4.32;;;;;;;;;;4998901;28;20485;-83
2022/11/22 08:06:25;;;;;;;14.98;3.58;;;;;;;;;;5002627;28;20042;-82
2022/11/22 08:08:50;;;;;;;15.02;4.40;;;;;;;;;;5017268;28;20489;-83
2022/11/22 08:11:15;;;;;;;14.15;4.57;;;;;;;;;;5012245;28;20096;-83
2022/11/22 08:13:41;;;;;;;11.95;4.38;;;;;;;4.12;100.00;67233.59;4992734;28;20042;-82
2022/11/22 08:16:09;;;;;;;14.68;4.00;;;;;;;4.13;100.00;67234.72;4997444;28;20035;-83
2022/11/22 08:18:37;;;;;;;13.20;4.38;;;;;;;4.15;100.00;67240.16;4997684;28;20540;-83
2022/11/22 08:21:09;;;;;;;19.45;4.90;;;;;;;;;;4991754;28;20045;-83
2022/11/22 08:23:34;;;;;;;18.73;5.30;;;;;;;;;;4992213;28;20454;-82
2022/11/22 08:26:00;;;;;;;21.77;5.97;;;;;;;4.25;100.00;67251.44;5004887;28;20046;-82
2022/11/22 08:28:26;;;;;;;16.45;5.38;;;;;;;4.28;100.00;67246.38;4990728;28;20092;-82
2022/11/22 08:30:51;;;;;;;11.82;5.00;;;;;;;;;;4991645;28;20043;-83
2022/11/22 08:33:16;;;;;;;19.88;5.68;;;;;;;4.36;100.00;67254.84;4990686;28;20050;-83
2022/11/22 08:35:42;;;;;;;19.05;6.85;;;;;;;4.42;100.00;67267.44;4990794;28;20042;-83
2022/11/22 08:38:07;;;;;;;20.40;6.60;;;;;;;4.45;100.00;67275.53;4995457;28;20041;-84
2022/11/22 08:40:32;;;;;;;18.42;6.10;;;;;;;;;;4991349;28;20058;-82
2022/11/22 08:42:58;;;;;;;17.48;6.47;;;;;;;4.56;100.00;67282.69;4995482;28;20046;-82
2022/11/22 08:45:23;;;;;;;16.95;5.72;;;;;;;4.61;100.00;67287.78;4991092;28;20502;-82
2022/11/22 08:47:49;;;;;;;16.95;5.07;;;;;;;4.68;100.00;67296.22;4991668;28;20470;-82
2022/11/22 08:50:15;;;;;;;22.85;6.38;;;;;;;;;;4990714;28;20047;-82
2022/11/22 08:52:41;;;;;;;19.92;5.70;;;;;;;4.83;100.00;67312.03;4990297;28;20042;-81
2022/11/22 08:55:07;;;;;;;13.95;4.93;;;;;;;4.89;100.00;67318.81;4988739;28;20557;-82
2022/11/22 08:57:32;;;;;;;16.77;4.85;;;;;;;4.94;100.00;67319.19;4991224;28;20142;-83
2022/11/22 08:59:57;;;;;;;16.50;4.32;;;;;;;5.01;100.00;67331.81;4990019;28;20066;-81
2022/11/22 09:02:23;;;;;;;14.43;4.65;;;;;;;5.05;100.00;67336.88;4991296;28;20046;-82
2022/11/22 09:04:48;;;;;;;18.73;4.75;;;;;;;;;;5000040;28;20608;-82
2022/11/22 09:07:13;;;;;;;13.38;4.97;;;;;;;5.18;100.00;67351.00;4988931;28;20049;-82
2022/11/22 09:09:39;;;;;;;9.43;4.07;;;;;;;5.26;100.00;67359.47;5006361;28;20081;-83
2022/11/22 09:12:04;;;;;;;12.70;3.92;;;;;;;;;;4983687;28;20589;-82
2022/11/22 09:14:29;;;;;;;13.85;4.93;;;;;;;5.40;100.00;67370.00;4992999;28;20626;-81
2022/11/22 09:16:55;;;;;;;18.73;5.00;;;;;;;;;;4988248;28;20104;-83
2022/11/22 09:19:20;;;;;;;16.88;4.40;;;;;;;5.53;100.00;67389.44;4990854;28;20062;-82
2022/11/22 09:21:45;;;;;;;15.07;3.88;;;;;;;;;;4990267;28;20122;-83
2022/11/22 09:24:10;;;;;;;8.93;3.00;;;;;;;;;;4987530;28;20054;-82
2022/11/22 09:26:36;;;;;;;12.63;3.47;;;;;;;5.65;100.00;67398.25;4990046;28;20653;-82
2022/11/22 09:29:01;;;;;;;15.85;3.58;;;;;;;;;;4989061;28;20445;-83
2022/11/22 09:31:27;;;;;;;10.38;3.78;;;;;;;;;;4991170;28;20049;-81
2022/11/22 09:33:52;;;;;;;13.82;3.38;;;;;;;5.77;100.00;67408.06;4989342;28;20037;-83
2022/11/22 09:36:20;;;;;;;13.85;3.88;;;;;;;5.81;100.00;67412.56;4989423;28;20042;-83
2022/11/22 09:38:46;;;;;;;16.15;3.63;;;;;;;5.88;100.00;67423.13;4991738;28;20049;-83
2022/11/22 09:41:14;;;;;;;12.73;3.80;;;;;;;5.96;100.00;67437.47;4991321;28;20035;-82
2022/11/22 09:44:08;;;;;;;14.73;4.03;;;;;;;6.03;100.00;67439.53;4984566;28;20070;-83
2022/11/22 09:46:58;;;;;;;10.55;3.33;;;;;;;6.10;100.00;67447.47;4973042;28;20781;-84
2022/11/22 09:49:33;;;;;;;13.20;3.85;;;;;;;6.22;100.00;67455.72;4977214;28;20082;-82
2022/11/22 09:52:01;;;;;;;13.63;3.60;;;;;;;;;;4989643;28;20042;-82
2022/11/22 09:54:34;;;;;;;8.07;2.75;;;;;;;6.23;100.00;67466.88;4990377;28;20551;-82
2022/11/22 09:57:01;;;;;;;10.23;2.85;;;;;;;;;;4988731;28;20042;-82
2022/11/22 09:59:31;;;;;;;10.82;2.90;;;;;;;6.26;100.00;67464.97;4988554;28;20104;-83
2022/11/22 10:02:06;;;;;;;11.50;3.00;;;;;;;6.27;100.00;67466.69;4996311;28;20064;-83
2022/11/22 10:04:38;;;;;;;9.70;2.95;;;;;;;6.31;100.00;67470.63;4989494;28;20065;-83
2022/11/22 10:07:21;;;;;;;9.05;2.90;;;;;;;;;;4997888;28;20133;-83
2022/11/22 10:09:46;;;;;;;11.48;3.03;;;;;;;;;;4993931;28;20082;-83
2022/11/22 10:12:21;;;;;;;11.80;3.13;;;;;;;6.49;100.00;67495.69;4982889;28;20125;-82
2022/11/22 10:15:01;;;;;;;11.93;2.47;;;;;;;6.58;100.00;67500.03;4989829;28;20278;-82
2022/11/22 10:17:58;;;;;;;12.00;2.78;;;;;;;6.57;100.00;67498.91;4988275;28;20050;-82
2022/11/22 10:20:38;;;;;;;8.95;2.63;;;;;;;6.59;100.00;67501.16;4987286;28;20086;-82
2022/11/22 10:23:13;;;;;;;6.50;2.58;;;;;;;6.58;100.00;67505.88;4988755;28;20034;-82
2022/11/22 10:26:02;;;;;;;13.15;2.97;;;;;;;6.62;100.00;67502.47;4989667;28;20061;-83
2022/11/22 10:28:34;;;;;;;12.32;2.58;;;;;;;6.66;100.00;67509.63;4952481;28;20058;-82
2022/11/22 10:31:15;;;;;;;10.20;2.33;;;;;;;6.69;100.00;67513.03;4990030;28;20034;-83
2022/11/22 10:34:04;;;;;;;9.77;2.90;;;;;;;;;;4990138;28;20089;-82
2022/11/22 10:36:41;;;;;;;8.60;2.43;;;;;;;;;;4965217;28;20144;-82
2022/11/22 10:39:09;;;;;;;9.30;3.00;;;;;;;6.76;98.32;67520.97;5009930;28;20269;-83
2022/11/22 10:41:53;;;;;;;9.30;1.90;;;;;;;;;;4998403;28;20038;-82
2022/11/22 10:44:40;;;;;;;8.48;2.22;;;;;;;;;;4983482;28;20309;-82
2022/11/22 10:47:13;;;;;;;6.38;1.73;;;;;;;6.81;96.35;67531.31;4987653;28;20043;-82
2022/11/22 10:49:38;;;;;;;7.90;2.15;;;;;;;;;;4988718;28;20034;-82
2022/11/22 10:52:12;;;;;;;7.45;2.35;;;;;;;;;;4989093;28;20465;-83
2022/11/22 10:54:51;;;;;;;8.18;1.92;;;;;;;6.85;94.07;67530.00;4988380;28;20046;-83
2022/11/22 10:57:22;;;;;;;;;;;;;;;6.88;93.70;67531.31;4983523;28;20061;-83
2022/11/22 10:59:54;;;;;;;7.55;1.52;;;;;;;;;;4987023;28;19925;-82
2022/11/22 11:02:47;;;;;;;5.25;1.65;;;;;;;6.95;95.45;67546.59;4988725;28;20045;-83
2022/11/22 11:05:15;;;;;;;7.35;1.65;;;;;;;;;;4986360;28;20050;-84
2022/11/22 11:07:42;;;;;;;7.22;1.85;;;;;;;;;;5000632;28;20128;-82
2022/11/22 11:10:16;;;;;;;8.75;2.00;;;;;;;;;;4997186;28;20074;-83
2022/11/22 11:12:49;;;;;;;6.28;1.77;;;;;;;7.26;91.09;67575.81;4990289;28;20053;-83
2022/11/22 11:15:30;;;;;;;6.03;1.50;;;;;;;7.24;88.93;67573.56;4987878;28;20048;-83
2022/11/22 11:18:04;;;;;;;4.15;1.35;;;;;;;;;;4990468;28;20042;-82
2022/11/22 11:20:35;;;;;;;7.25;1.92;;;;;;;;;;4988560;28;20053;-83
2022/11/22 11:23:01;;;;;;;6.57;1.67;;;;;;;7.25;89.70;67580.00;4991307;28;20026;-83
2022/11/22 11:25:32;;;;;;;6.60;1.30;;;;;;;7.24;89.73;67574.13;4994180;28;20566;-82
2022/11/22 11:28:09;;;;;;;5.57;1.35;;;;;;;;;;4993328;28;20054;-83
2022/11/22 11:30:48;;;;;;;4.90;1.65;;;;;;;;;;4992771;28;20096;-84
2022/11/22 11:33:19;;;;;;;6.90;1.92;;;;;;;7.20;90.90;67574.88;4993495;28;20038;-84
2022/11/22 11:35:46;;;;;;;8.05;1.88;;;;;;;7.20;91.23;67574.34;4993135;28;20051;-83
2022/11/22 11:38:30;;;;;;;5.03;1.90;;;;;;;;;;4993816;28;20034;-84
2022/11/22 11:40:55;;;;;;;6.65;1.67;;;;;;;7.15;90.16;67568.66;4992838;28;20038;-82
2022/11/22 11:43:21;;;;;;;4.95;1.73;;;;;;;;;;4994172;28;20098;-84
2022/11/22 11:45:47;;;;;;;5.75;2.00;;;;;;;7.15;90.99;67560.72;4997469;28;20100;-83
2022/11/22 11:48:26;;;;;;;7.32;2.13;;;;;;;7.13;91.03;67561.09;4998210;28;20066;-84
2022/11/22 11:50:51;;;;;;;5.95;2.58;;;;;;;;;;4998373;28;20053;-82
2022/11/22 11:53:24;;;;;;;6.93;2.00;;;;;;;;;;4997153;28;20042;-84
2022/11/22 11:55:49;;;;;;;7.57;2.03;;;;;;;;;;5006667;28;20050;-83
2022/11/22 11:58:23;;;;;;;8.40;2.40;;;;;;;;;;4999022;28;20041;-84
2022/11/22 12:00:49;;;;;;;5.18;2.00;;;;;;;7.16;92.54;67565.09;4995568;28;20050;-83
2022/11/22 12:03:18;;;;;;;4.38;1.80;;;;;;;7.15;92.23;67563.38;4997695;28;20141;-82
2022/11/22 12:05:43;;;;;;;6.80;2.08;;;;;;;7.17;91.70;67565.66;4995795;28;20122;-83
2022/11/22 12:08:28;;;;;;;5.93;2.20;;;;;;;;;;5001425;28;20042;-82
2022/11/22 12:11:00;;;;;;;6.68;2.33;;;;;;;7.16;91.98;67569.78;4996795;28;20054;-83
2022/11/22 12:13:54;;;;;;;6.65;2.30;;;;;;;7.13;91.87;67561.09;4997222;28;20051;-84
2022/11/22 12:16:30;;;;;;;7.13;1.90;;;;;;;7.14;92.66;67562.25;4997350;28;20051;-83
2022/11/22 12:19:11;;;;;;;6.97;1.92;;;;;;;7.12;92.40;67565.84;4995429;28;20043;-81
2022/11/22 12:21:55;;;;;;;4.07;1.55;;;;;;;;;;4994596;28;20402;-82
2022/11/22 12:24:30;;;;;;;4.35;1.48;;;;;;;;;;4997665;28;20050;-83
2022/11/22 12:26:55;;;;;;;7.72;1.98;;;;;;;7.10;92.17;67557.72;4997346;28;20065;-82
2022/11/22 12:29:21;;;;;;;5.57;1.90;;;;;;;;;;5014966;28;20074;-83
2022/11/22 12:31:51;;;;;;;6.60;1.98;;;;;;;7.13;92.60;67558.47;5000086;28;20082;-84
2022/11/22 12:34:46;;;;;;;6.00;1.85;;;;;;;7.11;92.80;67559.41;4992872;28;20051;-83
2022/11/22 12:37:29;;;;;;;7.25;2.35;;;;;;;7.13;92.95;67561.66;4995172;28;20446;-82
2022/11/22 12:40:00;;;;;;;6.72;2.17;;;;;;;7.11;92.98;67556.22;4996819;28;20046;-83
2022/11/22 12:42:33;;;;;;;7.72;2.30;;;;;;;7.11;93.69;67559.41;4992593;28;20053;-83
2022/11/22 12:45:08;;;;;;;8.00;2.15;;;;;;;7.10;92.98;67558.28;4994778;28;20046;-82